Tehachapi, CA (93561)

9:45 AM PST on February 13, 2016 (GMT -0800)
KCATEHAC25 | | Change Station
CLOSE
Current Station
Personal Weather Station
Location: Tehachapi, CA
Elevation: 7720 ft
Nearby Weather Stations

Elev 7720 ft 35.04 °N, 118.57 °W | Updated 10 seconds ago

Clear
Clear
51.6 °F
Feels Like 51.6 °F
N
8.3
Wind Variable Wind from ESE
Gusts 8.3 mph

Today
High -- | Low -- °F
--% Chance of Precip.
Yesterday
High -- | Low -- °F
Precip. -- in
Pressure 30.26 in
Visibility 5.0 miles
Clouds Clear
Dew Point 11 °F
Humidity 19%
Rainfall Not available.
Snow Depth Not available.
6:42 AM 5:34 PM
Waxing Crescent, 32% visible
METAR KTSP 131735Z AUTO 01005KT 5SM HZ CLR 13/05 A3026 RMK AO2
Pressure 30.26 in
Visibility 5.0 miles
Clouds Clear
Dew Point 11 °F
Humidity 19%
Rainfall Not available.
Snow Depth Not available.
6:42 AM 5:34 PM
Waxing Crescent, 32% visible
METAR KTSP 131735Z AUTO 01005KT 5SM HZ CLR 13/05 A3026 RMK AO2

10-Day Weather Forecast

Almanac

Astronomy

Feb. 13, 2016 Rise Set
Actual Time
Civil Twilight
Nautical Twilight
Astronomical Twilight
Moon
Length of Visible Light
Length of Day
Tomorrow will be .
, % of the Moon is Illuminated

Today's Extremes

State Highs State Lows

Community

WunderPhotos

Upload Photos

1,892,623 photos uploaded!

WunderBlog® & News

Nearby

Air Quality

  Air Quality AQ Index Pollutant
Not available.

Snow Depth

Station Depth Elevation

Earthquake Activity

City Distance Mag. Time & Date
Minimum magnitude displayed is 2.5.

Coastal Water Temperatures

Place Temperature

Stations

Nearby Weather Stations

Station Location Temp. Windchill Dew Point Humidity Wind Precip. Elev Updated Type
                   

Watches & Warnings

There are currently no watches in effect.